Time;durP1;ratioP1;P1;durP2;ratioP2;P2;SDS_P1;SDS_P2;PMS_P1;PMS_P2;Temp;Humidity;BMP_temperature;BMP_pressure;BME280_temperature;BME280_humidity;BME280_pressure;Samples;Min_cycle;Max_cycle;Signal;HPM_P1;HPM_P2
2022/12/02 00:01:12;;;;;;;47.08;16.65;;;;;;;0.78;100.00;95690.16;5002437;28;20049;-75
2022/12/02 00:03:38;;;;;;;43.00;16.42;;;;;;;0.68;100.00;95692.38;4995165;28;20057;-75
2022/12/02 00:06:11;;;;;;;51.70;17.52;;;;;;;0.70;100.00;95692.97;5003154;28;20046;-75
2022/12/02 00:08:37;;;;;;;47.92;17.05;;;;;;;0.74;100.00;95688.97;5004133;28;20153;-75
2022/12/02 00:11:18;;;;;;;45.15;17.08;;;;;;;0.75;100.00;95690.56;5003993;28;20046;-75
2022/12/02 00:13:44;;;;;;;41.35;16.40;;;;;;;0.71;100.00;95679.00;5006612;28;20182;-74
2022/12/02 00:16:20;;;;;;;51.22;15.77;;;;;;;0.77;100.00;95683.38;4993624;28;20038;-75
2022/12/02 00:18:46;;;;;;;41.03;16.05;;;;;;;0.80;100.00;95680.38;4998726;28;20058;-75
2022/12/02 00:21:12;;;;;;;44.80;16.10;;;;;;;0.81;100.00;95687.16;5000224;28;20503;-74
2022/12/02 00:23:38;;;;;;;45.40;16.27;;;;;;;0.78;100.00;95684.97;4999724;28;20133;-75
2022/12/02 00:26:03;;;;;;;47.70;17.25;;;;;;;0.69;100.00;95675.84;5006742;28;20038;-75
2022/12/02 00:28:29;;;;;;;47.65;16.05;;;;;;;0.69;100.00;95681.81;4993360;28;20042;-75
2022/12/02 00:30:54;;;;;;;44.92;15.85;;;;;;;0.69;100.00;95683.63;5000632;28;20059;-74
2022/12/02 00:33:20;;;;;;;49.40;17.42;;;;;;;0.69;100.00;95670.66;5002208;28;20181;-76
2022/12/02 00:35:45;;;;;;;53.15;18.02;;;;;;;0.66;100.00;95676.22;4999800;28;20511;-75
2022/12/02 00:38:11;;;;;;;46.72;15.95;;;;;;;0.68;100.00;95669.06;5006156;28;20100;-75
2022/12/02 00:40:36;;;;;;;44.47;16.25;;;;;;;0.74;100.00;95673.44;5004574;28;20510;-75
2022/12/02 00:48:35;;;;;;;;;;;;;;;0.77;100.00;95662.66;5006113;28;20412;-75
2022/12/02 00:51:02;;;;;;;43.05;14.50;;;;;;;0.77;100.00;95657.47;5011177;28;19921;-74
2022/12/02 00:53:27;;;;;;;49.72;16.73;;;;;;;0.77;100.00;95657.47;5013215;28;20095;-75
2022/12/02 00:55:53;;;;;;;49.67;17.80;;;;;;;0.69;100.00;95655.13;4996614;28;20042;-74
2022/12/02 00:58:19;;;;;;;52.92;15.88;;;;;;;0.74;100.00;95659.69;5002412;28;20053;-75
2022/12/02 01:00:44;;;;;;;47.25;15.75;;;;;;;0.79;100.00;95663.25;4999631;28;20403;-75
2022/12/02 01:03:10;;;;;;;56.80;16.60;;;;;;;0.83;100.00;95666.22;5006940;28;20053;-75
2022/12/02 01:05:36;;;;;;;51.00;18.05;;;;;;;0.81;100.00;95663.84;5008645;28;20042;-75
2022/12/02 01:08:01;;;;;;;41.35;15.63;;;;;;;0.78;100.00;95659.06;5008218;28;20034;-75
2022/12/02 01:10:27;;;;;;;47.42;17.80;;;;;;;0.77;100.00;95657.47;5006420;28;20053;-75
2022/12/02 01:12:52;;;;;;;46.20;16.75;;;;;;;0.82;100.00;95660.25;4999172;28;20058;-75
2022/12/02 01:15:18;;;;;;;50.67;16.33;;;;;;;0.75;100.00;95659.47;5010043;28;20050;-75
2022/12/02 01:17:43;;;;;;;51.03;16.77;;;;;;;0.79;100.00;95660.66;5001881;28;20058;-75
2022/12/02 01:20:10;;;;;;;47.42;17.13;;;;;;;0.83;100.00;95656.69;5000677;28;20074;-75
2022/12/02 01:22:35;;;;;;;46.75;16.45;;;;;;;0.86;100.00;95661.44;5007603;28;20092;-75
2022/12/02 01:25:01;;;;;;;47.13;16.70;;;;;;;0.83;100.00;95650.69;4995242;28;20038;-76
2022/12/02 01:27:26;;;;;;;50.35;16.70;;;;;;;0.79;100.00;95645.13;5007544;28;20042;-75
2022/12/02 01:29:52;;;;;;;48.83;16.73;;;;;;;0.80;100.00;95641.50;5011788;28;20092;-75
2022/12/02 01:32:18;;;;;;;55.17;17.30;;;;;;;0.84;100.00;95652.28;5005219;28;20528;-75
2022/12/02 01:34:44;;;;;;;48.08;17.52;;;;;;;0.86;100.00;95645.91;4995573;28;20129;-74
2022/12/02 01:37:10;;;;;;;54.25;18.85;;;;;;;0.84;100.00;95653.06;5001978;28;20038;-75
2022/12/02 01:39:35;;;;;;;45.17;17.33;;;;;;;0.83;100.00;95643.72;5011912;28;20516;-75
2022/12/02 01:42:01;;;;;;;47.03;16.33;;;;;;;0.84;100.00;95642.69;5003598;28;20072;-75
2022/12/02 01:44:27;;;;;;;52.60;17.38;;;;;;;0.84;100.00;95631.56;5004561;28;20045;-74
2022/12/02 01:46:54;;;;;;;50.90;17.13;;;;;;;0.85;100.00;95641.72;5000705;28;20053;-75
2022/12/02 01:49:20;;;;;;;48.20;16.48;;;;;;;0.86;100.00;95635.53;5009171;28;20515;-75
2022/12/02 01:51:46;;;;;;;54.60;18.92;;;;;;;0.88;100.00;95642.28;5008698;28;20042;-75
2022/12/02 01:54:11;;;;;;;51.63;17.60;;;;;;;0.82;100.00;95642.13;5003210;28;20101;-76
2022/12/02 01:56:37;;;;;;;52.85;18.33;;;;;;;0.74;100.00;95641.56;5003495;28;20045;-75
2022/12/02 01:59:03;;;;;;;49.78;17.83;;;;;;;0.76;100.00;95645.53;5003467;28;20038;-75
2022/12/02 02:01:31;;;;;;;52.10;18.35;;;;;;;0.80;100.00;95641.50;5010674;28;20510;-74
2022/12/02 02:03:57;;;;;;;50.78;18.33;;;;;;;0.82;100.00;95639.53;5007854;28;20419;-74
2022/12/02 02:06:25;;;;;;;53.05;16.95;;;;;;;0.83;100.00;95635.94;5011187;28;20046;-74
2022/12/02 02:08:51;;;;;;;45.38;16.48;;;;;;;0.81;100.00;95637.94;5005194;28;20109;-75
2022/12/02 02:11:18;;;;;;;47.17;17.15;;;;;;;0.79;100.00;95634.75;5004824;28;20442;-75
2022/12/02 02:13:43;;;;;;;48.13;16.52;;;;;;;0.82;100.00;95629.16;5001283;28;20044;-75
2022/12/02 02:16:09;;;;;;;43.65;15.77;;;;;;;0.85;100.00;95623.56;5010288;28;20530;-75
2022/12/02 02:18:34;;;;;;;49.85;16.95;;;;;;;0.84;100.00;95627.16;5005442;28;20046;-75
2022/12/02 02:21:00;;;;;;;57.28;17.52;;;;;;;0.88;100.00;95629.34;5010265;28;20046;-75
2022/12/02 02:23:27;;;;;;;58.40;19.00;;;;;;;0.86;100.00;95635.53;5004140;28;20082;-75
2022/12/02 02:25:56;;;;;;;52.45;17.23;;;;;;;0.85;100.00;95628.75;5006269;28;20034;-76
2022/12/02 02:28:23;;;;;;;56.80;19.33;;;;;;;0.85;100.00;95628.75;5007140;28;20050;-75
2022/12/02 02:30:51;;;;;;;52.22;18.08;;;;;;;0.86;100.00;95622.59;5006757;28;20312;-75
2022/12/02 02:33:17;;;;;;;56.90;17.75;;;;;;;0.81;100.00;95617.22;5009522;28;20042;-75
2022/12/02 02:35:44;;;;;;;56.42;18.35;;;;;;;0.85;100.00;95623.56;5005306;28;20100;-76
2022/12/02 02:38:13;;;;;;;61.47;18.80;;;;;;;0.91;100.00;95621.19;4996217;28;20066;-75
2022/12/02 02:40:39;;;;;;;56.97;18.35;;;;;;;0.92;100.00;95620.16;5002509;28;20500;-75
2022/12/02 02:43:05;;;;;;;61.13;19.63;;;;;;;0.89;100.00;95617.97;5009075;28;20073;-76
2022/12/02 02:45:34;;;;;;;52.70;18.17;;;;;;;0.88;100.00;95616.38;4997842;28;20042;-75
2022/12/02 02:48:02;;;;;;;56.85;18.48;;;;;;;0.91;100.00;95613.41;4996410;28;20034;-75
2022/12/02 02:50:28;;;;;;;62.78;19.40;;;;;;;0.90;100.00;95609.22;5008230;28;20038;-75
2022/12/02 02:52:54;;;;;;;58.72;19.70;;;;;;;0.92;100.00;95604.59;5005893;28;20108;-75
2022/12/02 02:55:22;;;;;;;57.47;19.45;;;;;;;0.97;100.00;95609.97;4996408;28;20038;-75
2022/12/02 02:57:49;;;;;;;55.05;17.83;;;;;;;0.94;100.00;95610.41;4999966;28;20039;-75
2022/12/02 03:00:17;;;;;;;50.78;17.90;;;;;;;0.84;100.00;95606.44;4998648;28;20049;-75
2022/12/02 03:02:45;;;;;;;50.42;19.52;;;;;;;0.77;100.00;95597.88;5002790;28;20095;-75
2022/12/02 03:05:11;;;;;;;50.95;17.33;;;;;;;0.76;100.00;95608.47;4998022;28;20038;-74
2022/12/02 03:07:37;;;;;;;57.40;18.35;;;;;;;0.68;100.00;95596.53;5020763;28;20125;-75
2022/12/02 03:10:05;;;;;;;49.33;17.02;;;;;;;0.70;100.00;95594.53;5009645;28;20045;-75
2022/12/02 03:12:31;;;;;;;54.05;17.48;;;;;;;0.78;100.00;95602.06;5001030;28;20147;-75
2022/12/02 03:14:57;;;;;;;52.08;16.88;;;;;;;0.81;100.00;95606.06;4992767;28;20069;-74
2022/12/02 03:17:23;;;;;;;45.72;16.30;;;;;;;0.83;100.00;95599.69;4999782;28;20250;-75
2022/12/02 03:19:49;;;;;;;51.53;17.20;;;;;;;0.84;100.00;95596.06;4991406;28;20049;-74
2022/12/02 03:22:15;;;;;;;51.17;16.15;;;;;;;0.85;100.00;95597.66;5008350;28;20046;-74
2022/12/02 03:24:41;;;;;;;51.70;17.05;;;;;;;0.89;100.00;95592.06;5003716;28;20042;-74
2022/12/02 03:27:07;;;;;;;50.88;17.55;;;;;;;0.94;100.00;95589.66;4996066;28;20050;-75
2022/12/02 03:29:33;;;;;;;44.38;16.80;;;;;;;0.88;100.00;95585.28;4995062;28;20034;-75
2022/12/02 03:32:00;;;;;;;51.97;16.92;;;;;;;0.82;100.00;95587.72;4991109;28;20042;-74
2022/12/02 03:34:27;;;;;;;46.17;16.88;;;;;;;0.89;100.00;95589.47;5020647;28;20042;-75
2022/12/02 03:36:57;;;;;;;50.60;17.25;;;;;;;0.85;100.00;95582.13;5002330;28;20491;-75
2022/12/02 03:39:22;;;;;;;52.67;18.73;;;;;;;0.86;100.00;95588.91;5005809;28;20045;-75
2022/12/02 03:41:48;;;;;;;54.65;18.52;;;;;;;0.81;100.00;95586.13;4991388;28;20528;-75
2022/12/02 03:44:15;;;;;;;54.85;19.00;;;;;;;0.80;100.00;95589.69;5004583;28;20424;-75
2022/12/02 03:46:42;;;;;;;52.75;17.67;;;;;;;0.79;100.00;95582.94;5002302;28;20043;-75
2022/12/02 03:49:09;;;;;;;59.42;18.60;;;;;;;0.69;100.00;95578.19;5003299;28;20042;-75
2022/12/02 03:51:35;;;;;;;49.72;18.70;;;;;;;0.69;100.00;95582.59;5003506;28;20042;-75
2022/12/02 03:54:00;;;;;;;52.05;18.70;;;;;;;0.68;100.00;95579.19;5000883;28;20049;-74
2022/12/02 03:56:26;;;;;;;54.10;18.20;;;;;;;0.73;100.00;95588.16;4993435;28;20042;-74
2022/12/02 03:58:52;;;;;;;48.28;16.85;;;;;;;0.77;100.00;95579.75;4999147;28;20057;-74
2022/12/02 04:01:19;;;;;;;55.38;17.92;;;;;;;0.79;100.00;95585.53;5002270;28;20046;-75
2022/12/02 04:03:46;;;;;;;54.00;16.67;;;;;;;0.80;100.00;95579.34;4998070;28;20045;-75
2022/12/02 04:06:11;;;;;;;53.20;16.45;;;;;;;0.84;100.00;95580.53;5002579;28;20042;-75
2022/12/02 04:08:38;;;;;;;49.70;16.63;;;;;;;0.86;100.00;95578.53;5005471;28;20506;-75
2022/12/02 04:11:03;;;;;;;47.28;16.50;;;;;;;0.90;100.00;95578.13;5002009;28;20033;-75
2022/12/02 04:13:29;;;;;;;53.25;17.23;;;;;;;0.89;100.00;95566.16;4996904;28;20042;-75
2022/12/02 04:15:55;;;;;;;50.80;17.45;;;;;;;0.89;100.00;95571.34;4996943;28;20033;-75
2022/12/02 04:18:20;;;;;;;49.33;16.42;;;;;;;0.89;100.00;95571.34;5001964;28;20100;-74
2022/12/02 04:20:46;;;;;;;48.67;17.85;;;;;;;0.83;100.00;95568.59;5005176;28;20047;-75
2022/12/02 04:23:12;;;;;;;50.67;18.35;;;;;;;0.77;100.00;95564.22;4997470;28;20053;-75
2022/12/02 04:25:37;;;;;;;49.63;18.27;;;;;;;0.81;100.00;95565.41;4993086;28;20038;-74
2022/12/02 04:28:03;;;;;;;49.35;16.48;;;;;;;0.86;100.00;95557.81;4998959;28;20042;-75
2022/12/02 04:30:29;;;;;;;52.97;17.58;;;;;;;0.89;100.00;95555.78;4997910;28;20066;-74
2022/12/02 04:32:54;;;;;;;52.38;17.30;;;;;;;0.90;100.00;95562.56;5003122;28;20125;-75
2022/12/02 04:35:20;;;;;;;52.47;17.65;;;;;;;0.91;100.00;95561.59;5001377;28;20081;-74
2022/12/02 04:37:46;;;;;;;54.03;18.15;;;;;;;0.89;100.00;95558.38;4992980;28;20570;-75
2022/12/02 04:40:12;;;;;;;49.13;17.23;;;;;;;0.91;100.00;95554.59;5009940;28;20046;-75
2022/12/02 04:42:37;;;;;;;51.90;18.70;;;;;;;0.92;100.00;95560.56;4998675;28;20047;-75
2022/12/02 04:45:03;;;;;;;48.30;17.40;;;;;;;0.94;100.00;95563.75;4999190;28;20048;-75
2022/12/02 04:47:30;;;;;;;53.22;18.73;;;;;;;0.95;100.00;95562.72;4994747;28;20065;-75
2022/12/02 04:49:56;;;;;;;50.85;18.35;;;;;;;0.96;100.00;95566.91;5001850;28;20038;-75
2022/12/02 04:52:22;;;;;;;52.08;17.40;;;;;;;0.95;100.00;95558.38;5007840;28;20130;-75
2022/12/02 04:54:47;;;;;;;55.90;19.00;;;;;;;0.93;100.00;95557.75;5006814;28;20034;-75
2022/12/02 04:57:13;;;;;;;53.05;19.38;;;;;;;0.95;100.00;95557.56;5004939;28;20038;-75
2022/12/02 04:59:38;;;;;;;54.92;18.13;;;;;;;0.98;100.00;95559.75;4999439;28;20042;-74
2022/12/02 05:02:05;;;;;;;58.55;18.60;;;;;;;0.94;100.00;95554.19;5002955;28;20046;-75
2022/12/02 05:04:30;;;;;;;53.42;18.50;;;;;;;0.96;100.00;95561.75;5003050;28;20042;-74
2022/12/02 05:06:56;;;;;;;56.00;18.50;;;;;;;0.95;100.00;95560.97;4991007;28;20050;-75
2022/12/02 05:09:21;;;;;;;60.10;19.50;;;;;;;0.95;100.00;95549.78;5008649;28;20042;-75
2022/12/02 05:11:47;;;;;;;51.05;18.02;;;;;;;0.99;100.00;95556.13;5001730;28;20048;-75
2022/12/02 05:14:12;;;;;;;51.40;18.27;;;;;;;0.94;100.00;95553.38;5005202;28;20392;-74
2022/12/02 05:16:38;;;;;;;49.90;18.10;;;;;;;0.93;100.00;95551.78;4999681;28;20049;-75
2022/12/02 05:19:03;;;;;;;53.55;18.88;;;;;;;0.95;100.00;95554.97;4998398;28;20068;-74
2022/12/02 05:21:29;;;;;;;58.45;18.52;;;;;;;0.92;100.00;95545.81;5004322;28;20062;-75
2022/12/02 05:23:54;;;;;;;52.28;18.17;;;;;;;0.97;100.00;95552.97;5008487;28;20057;-75
2022/12/02 05:26:20;;;;;;;57.50;18.05;;;;;;;0.93;100.00;95546.59;5004649;28;20045;-75
2022/12/02 05:28:45;;;;;;;53.67;18.65;;;;;;;0.96;100.00;95546.19;4994326;28;20038;-74
2022/12/02 05:31:11;;;;;;;59.20;18.70;;;;;;;0.97;100.00;95545.19;5012305;28;20121;-74
2022/12/02 05:33:36;;;;;;;54.65;19.23;;;;;;;0.99;100.00;95545.78;5010757;28;20491;-73
2022/12/02 05:36:02;;;;;;;55.30;19.25;;;;;;;0.97;100.00;95550.38;5008706;28;20125;-74
2022/12/02 05:38:28;;;;;;;60.63;19.23;;;;;;;0.94;100.00;95543.81;5003305;28;20053;-74
2022/12/02 05:40:55;;;;;;;54.58;18.77;;;;;;;0.92;100.00;95547.59;5009665;28;20041;-73
2022/12/02 05:43:23;;;;;;;67.35;20.02;;;;;;;0.92;100.00;95547.59;5007779;28;20056;-74
2022/12/02 05:45:49;;;;;;;60.70;19.67;;;;;;;0.93;100.00;95546.59;5008912;28;20046;-74
2022/12/02 05:48:17;;;;;;;53.78;17.98;;;;;;;0.92;100.00;95550.19;5005000;28;20045;-74
2022/12/02 05:50:44;;;;;;;51.92;18.23;;;;;;;0.93;100.00;95551.78;5009801;28;20046;-74
2022/12/02 05:53:22;;;;;;;52.78;17.73;;;;;;;0.94;100.00;95543.03;5003574;28;20126;-75
2022/12/02 05:55:49;;;;;;;65.35;19.80;;;;;;;0.94;100.00;95548.22;5000524;28;20034;-73
2022/12/02 05:58:16;;;;;;;60.63;20.08;;;;;;;0.88;100.00;95549.00;4993341;28;20046;-74
2022/12/02 06:00:42;;;;;;;54.88;19.02;;;;;;;0.88;100.00;95549.00;5002577;28;20451;-74
2022/12/02 06:03:16;;;;;;;55.55;19.10;;;;;;;0.83;100.00;95550.44;4995544;28;20053;-73
2022/12/02 06:05:42;;;;;;;60.42;20.10;;;;;;;0.83;100.00;95553.03;5009397;28;20073;-73
2022/12/02 06:08:24;;;;;;;66.10;21.38;;;;;;;0.79;100.00;95546.69;4996397;28;20042;-74
2022/12/02 06:11:02;;;;;;;56.15;18.08;;;;;;;0.85;100.00;95548.44;5008899;28;20606;-72
2022/12/02 06:13:34;;;;;;;59.42;19.67;;;;;;;0.80;100.00;95548.25;4998913;28;20104;-73
2022/12/02 06:16:00;;;;;;;61.22;20.83;;;;;;;0.78;100.00;95547.69;5002880;28;20041;-73
2022/12/02 06:18:32;;;;;;;57.40;18.80;;;;;;;0.74;100.00;95548.31;5007427;28;20041;-72
2022/12/02 06:21:02;;;;;;;58.53;19.73;;;;;;;0.81;100.00;95549.06;5004421;28;20562;-72
2022/12/02 06:23:31;;;;;;;60.28;19.45;;;;;;;0.80;100.00;95548.25;5010580;28;20042;-73
2022/12/02 06:25:58;;;;;;;59.05;19.88;;;;;;;0.79;100.00;95551.06;4999622;28;20038;-74
2022/12/02 06:28:33;;;;;;;57.78;18.27;;;;;;;0.76;100.00;95544.50;4999964;28;20047;-74
2022/12/02 06:31:15;;;;;;;59.25;18.92;;;;;;;0.81;100.00;95544.66;5008689;28;20041;-75
2022/12/02 06:33:42;;;;;;;50.45;18.75;;;;;;;0.78;100.00;95545.09;5003631;28;20042;-74
2022/12/02 06:36:12;;;;;;;58.72;20.55;;;;;;;0.73;100.00;95542.31;5003631;28;20042;-74
2022/12/02 06:38:47;;;;;;;52.83;18.48;;;;;;;0.78;100.00;95550.25;5011573;28;20053;-74
2022/12/02 06:41:21;;;;;;;52.65;17.80;;;;;;;0.83;100.00;95553.03;5011320;28;20585;-73
2022/12/02 06:45:03;;;;;;;55.70;18.10;;;;;;;0.81;100.00;95544.66;5006840;28;20501;-74
2022/12/02 06:46:34;;;;;;;55.80;18.88;;;;;;;0.85;100.00;95556.22;5001159;28;20284;-73
2022/12/02 06:49:11;;;;;;;59.33;18.48;;;;;;;0.88;100.00;95560.19;5001843;28;20488;-74
2022/12/02 06:51:37;;;;;;;60.08;19.13;;;;;;;0.84;100.00;95554.63;4997012;28;20038;-74
2022/12/02 06:54:14;;;;;;;57.28;18.33;;;;;;;0.88;100.00;95552.41;5008760;28;20515;-74
2022/12/02 06:56:40;;;;;;;58.55;21.25;;;;;;;0.80;100.00;95553.44;5006208;28;20096;-74
2022/12/02 06:59:13;;;;;;;60.47;17.95;;;;;;;0.81;100.00;95555.03;5009726;28;20041;-74
2022/12/02 07:01:41;;;;;;;56.47;18.58;;;;;;;0.84;100.00;95549.44;5010203;28;20590;-73
2022/12/02 07:04:07;;;;;;;67.07;21.17;;;;;;;0.81;100.00;95552.44;5004442;28;20052;-74
2022/12/02 07:06:36;;;;;;;56.00;20.33;;;;;;;0.79;100.00;95545.88;5003040;28;20097;-74
2022/12/02 07:09:11;;;;;;;53.67;19.13;;;;;;;0.79;100.00;95551.88;5005008;28;20644;-74
2022/12/02 07:11:49;;;;;;;59.95;18.67;;;;;;;0.84;100.00;95557.19;5009468;28;20084;-74
2022/12/02 07:14:41;;;;;;;61.78;18.88;;;;;;;0.82;100.00;95551.44;4999363;28;20439;-74
2022/12/02 07:17:28;;;;;;;62.28;18.40;;;;;;;0.94;100.00;95550.81;5000911;28;20210;-74
2022/12/02 07:19:54;;;;;;;58.95;18.65;;;;;;;0.91;100.00;95548.63;4998488;28;20046;-74
2022/12/02 07:22:22;;;;;;;64.32;20.38;;;;;;;0.82;100.00;95551.44;4994464;28;20404;-75
2022/12/02 07:25:08;;;;;;;73.32;21.35;;;;;;;0.86;100.00;95552.63;5006139;28;20072;-74
2022/12/02 07:27:39;;;;;;;63.55;20.40;;;;;;;0.83;100.00;95547.06;5000031;28;20053;-74
2022/12/02 07:30:32;;;;;;;65.22;21.67;;;;;;;0.86;100.00;95557.81;5001793;28;20148;-75
2022/12/02 07:32:58;;;;;;;64.57;19.88;;;;;;;0.91;100.00;95553.81;5002086;28;20042;-75
2022/12/02 07:35:24;;;;;;;69.03;22.05;;;;;;;0.92;100.00;95555.38;4999837;28;20093;-74
2022/12/02 07:37:50;;;;;;;66.88;20.52;;;;;;;0.91;100.00;95553.81;5001305;28;20042;-75
2022/12/02 07:40:16;;;;;;;72.00;21.17;;;;;;;0.93;100.00;95556.97;5006021;28;20123;-75
2022/12/02 07:42:42;;;;;;;66.43;21.05;;;;;;;0.99;100.00;95556.13;5008837;28;20121;-70
2022/12/02 07:45:13;;;;;;;66.50;19.80;;;;;;;0.99;100.00;95561.31;5004656;28;20057;-70
2022/12/02 07:47:39;;;;;;;67.82;20.52;;;;;;;0.97;100.00;95552.97;4996480;28;20483;-74
2022/12/02 07:50:05;;;;;;;73.07;22.92;;;;;;;0.99;100.00;95554.34;5005366;28;20143;-75
2022/12/02 07:52:31;;;;;;;65.38;20.52;;;;;;;1.01;100.00;95560.13;4997399;28;20056;-74
2022/12/02 07:54:56;;;;;;;69.28;20.95;;;;;;;1.00;100.00;95555.13;4995616;28;20038;-75
2022/12/02 07:57:22;;;;;;;64.60;20.42;;;;;;;1.05;100.00;95555.31;4999129;28;20423;-76
2022/12/02 07:59:47;;;;;;;64.65;20.25;;;;;;;1.05;100.00;95565.69;5002271;28;20046;-72
2022/12/02 08:02:13;;;;;;;70.68;20.95;;;;;;;1.07;100.00;95562.91;5008428;28;20041;-73
2022/12/02 08:04:39;;;;;;;71.03;21.45;;;;;;;1.06;100.00;95562.09;4999713;28;20038;-72
2022/12/02 08:07:04;;;;;;;65.00;21.48;;;;;;;1.08;100.00;95560.09;5002401;28;20041;-73
2022/12/02 08:09:30;;;;;;;66.88;21.08;;;;;;;1.05;100.00;95560.50;4991931;28;20039;-73
2022/12/02 08:11:55;;;;;;;73.65;22.35;;;;;;;1.02;100.00;95555.72;5001878;28;20380;-73
2022/12/02 08:14:21;;;;;;;71.85;22.27;;;;;;;1.02;100.00;95555.72;4999694;28;20038;-74
2022/12/02 08:16:46;;;;;;;73.85;22.20;;;;;;;1.14;100.00;95556.66;5009307;28;20037;-76
2022/12/02 08:19:12;;;;;;;68.38;22.35;;;;;;;1.05;100.00;95550.16;5001216;28;20038;-72
2022/12/02 08:21:39;;;;;;;68.88;21.98;;;;;;;1.07;100.00;95553.31;5000613;28;20042;-75
2022/12/02 08:24:05;;;;;;;73.55;21.55;;;;;;;1.09;100.00;95553.88;5000788;28;20053;-73
2022/12/02 08:26:32;;;;;;;68.05;20.30;;;;;;;1.10;100.00;95550.28;4991240;28;20128;-73
2022/12/02 08:28:57;;;;;;;62.53;19.50;;;;;;;1.05;100.00;95555.31;5008458;28;20042;-74
2022/12/02 08:31:23;;;;;;;65.85;22.15;;;;;;;1.08;100.00;95552.31;5007812;28;20732;-75
2022/12/02 08:33:50;;;;;;;82.60;22.05;;;;;;;1.07;100.00;95553.31;4998733;28;20042;-77
2022/12/02 08:36:16;;;;;;;63.20;20.38;;;;;;;1.04;100.00;95558.91;5005658;28;20048;-73
2022/12/02 08:38:42;;;;;;;59.88;20.80;;;;;;;0.99;100.00;95548.38;5005731;28;20038;-73
2022/12/02 08:41:09;;;;;;;70.63;22.02;;;;;;;1.10;100.00;95552.88;5004889;28;20411;-74
2022/12/02 08:43:34;;;;;;;70.45;22.40;;;;;;;1.09;100.00;95556.47;4997793;28;20141;-74
2022/12/02 08:46:00;;;;;;;68.65;21.65;;;;;;;1.08;100.00;95554.91;5005630;28;20419;-75
2022/12/02 08:48:25;;;;;;;76.57;21.35;;;;;;;1.05;100.00;95550.16;4994680;28;20415;-75
2022/12/02 08:50:51;;;;;;;71.18;22.23;;;;;;;1.09;100.00;95556.47;5003244;28;20049;-75
2022/12/02 08:53:16;;;;;;;64.60;22.77;;;;;;;1.12;100.00;95552.69;5004155;28;20047;-74
2022/12/02 08:55:42;;;;;;;63.55;21.60;;;;;;;1.07;100.00;95548.13;5002145;28;20053;-73
2022/12/02 08:58:08;;;;;;;84.57;22.42;;;;;;;1.06;100.00;95545.75;5002592;28;20042;-75
2022/12/02 09:00:34;;;;;;;72.50;22.75;;;;;;;1.09;100.00;95551.28;5004030;28;20614;-74
2022/12/02 09:02:59;;;;;;;75.22;23.02;;;;;;;1.02;100.00;95547.94;4998270;28;20041;-74
2022/12/02 09:05:25;;;;;;;78.93;22.30;;;;;;;1.06;100.00;95546.53;5000350;28;20504;-74
2022/12/02 09:07:50;;;;;;;71.30;22.10;;;;;;;1.06;100.00;95540.56;5011276;28;20104;-74
2022/12/02 09:10:16;;;;;;;84.90;21.40;;;;;;;1.20;100.00;95542.84;5000741;28;20318;-74
2022/12/02 09:12:41;;;;;;;65.65;20.55;;;;;;;1.36;100.00;95543.38;5004055;28;20042;-74
2022/12/02 09:15:08;;;;;;;72.43;20.45;;;;;;;1.48;100.00;95544.28;4996938;28;20066;-74
2022/12/02 09:17:33;;;;;;;71.82;21.55;;;;;;;1.38;100.00;95543.97;5003062;28;20066;-74
2022/12/02 09:19:59;;;;;;;76.95;21.58;;;;;;;1.47;100.00;95537.50;5000524;28;20041;-74
2022/12/02 09:22:25;;;;;;;81.22;22.55;;;;;;;1.48;100.00;95544.28;5004378;28;20104;-73
2022/12/02 09:24:50;;;;;;;71.90;21.13;;;;;;;1.61;100.00;95547.75;5004153;28;20034;-74
2022/12/02 09:27:16;;;;;;;74.63;22.40;;;;;;;1.68;100.00;95538.13;5002413;28;20054;-74
2022/12/02 09:29:41;;;;;;;69.43;22.85;;;;;;;1.63;100.00;95546.56;5003482;28;20174;-74
2022/12/02 09:32:07;;;;;;;67.85;22.13;;;;;;;1.76;100.00;95540.47;5017971;28;20040;-72
2022/12/02 09:34:32;;;;;;;80.20;24.05;;;;;;;1.81;100.00;95532.03;5035447;28;20049;-72
2022/12/02 09:36:58;;;;;;;74.93;22.15;;;;;;;1.74;100.00;95542.50;5031791;28;20088;-72
2022/12/02 09:39:24;;;;;;;72.40;23.75;;;;;;;1.77;100.00;95539.47;5024794;28;20084;-72
2022/12/02 09:41:49;;;;;;;79.80;23.50;;;;;;;1.82;100.00;95526.63;5034524;28;20060;-72
2022/12/02 09:44:15;;;;;;;69.15;23.23;;;;;;;1.86;100.00;95538.19;5031369;28;20052;-72
2022/12/02 09:46:41;;;;;;;71.38;22.73;;;;;;;1.84;100.00;95532.41;5025752;28;20022;-71
2022/12/02 09:49:06;;;;;;;77.50;22.52;;;;;;;1.78;100.00;95533.28;5031073;28;20025;-73
2022/12/02 09:51:32;;;;;;;80.80;23.25;;;;;;;1.83;100.00;95525.63;5028536;28;20038;-75
2022/12/02 09:53:59;;;;;;;83.50;24.55;;;;;;;1.82;100.00;95524.03;5001599;28;20042;-74
2022/12/02 09:56:24;;;;;;;78.05;23.23;;;;;;;1.71;100.00;95522.13;5004456;28;20049;-74
2022/12/02 09:58:53;;;;;;;74.00;23.80;;;;;;;1.77;100.00;95531.69;5010646;28;20573;-73
2022/12/02 10:01:19;;;;;;;73.00;22.27;;;;;;;1.78;100.00;95517.72;5011626;28;20698;-76
2022/12/02 10:03:48;;;;;;;86.63;25.63;;;;;;;1.66;100.00;95514.22;5005777;28;20044;-74
2022/12/02 10:06:19;;;;;;;85.32;23.63;;;;;;;1.65;100.00;95517.81;5007233;28;20500;-74
2022/12/02 10:08:45;;;;;;;78.25;21.67;;;;;;;1.75;100.00;95518.13;5008359;28;20089;-73
2022/12/02 10:11:21;;;;;;;81.85;23.30;;;;;;;1.76;100.00;95519.72;4999457;28;20050;-75
2022/12/02 10:13:47;;;;;;;77.60;22.85;;;;;;;1.71;100.00;95511.75;5009606;28;20045;-74
2022/12/02 10:16:13;;;;;;;84.30;23.60;;;;;;;1.72;100.00;95513.34;5004149;28;20096;-73
2022/12/02 10:18:40;;;;;;;72.82;23.15;;;;;;;1.67;100.00;95510.63;5003127;28;20053;-74
2022/12/02 10:21:05;;;;;;;71.85;23.20;;;;;;;1.68;100.00;95507.00;5006652;28;20050;-74
2022/12/02 10:23:31;;;;;;;70.43;21.73;;;;;;;1.70;100.00;95510.19;5006379;28;20907;-74
2022/12/02 10:26:06;;;;;;;84.10;23.75;;;;;;;1.75;100.00;95509.53;5003436;28;20030;-73
2022/12/02 10:28:34;;;;;;;73.72;21.95;;;;;;;1.79;100.00;95514.09;5010096;28;20514;-73
2022/12/02 10:31:11;;;;;;;73.10;22.45;;;;;;;1.87;100.00;95503.44;5008451;28;20084;-72
2022/12/02 10:33:49;;;;;;;75.90;23.05;;;;;;;1.80;100.00;95505.31;5004508;28;20454;-73
2022/12/02 10:36:28;;;;;;;68.45;21.83;;;;;;;1.78;100.00;95507.34;5005790;28;20577;-73
2022/12/02 10:38:54;;;;;;;79.40;22.13;;;;;;;1.81;100.00;95496.53;5002783;28;20050;-72
2022/12/02 10:41:24;;;;;;;64.07;21.65;;;;;;;1.83;100.00;95489.31;5010852;28;20115;-72
2022/12/02 10:43:52;;;;;;;69.30;20.67;;;;;;;1.77;100.00;95490.16;5000360;28;20505;-72
2022/12/02 10:46:22;;;;;;;66.75;21.73;;;;;;;1.77;100.00;95499.72;5000076;28;20535;-72
2022/12/02 10:48:48;;;;;;;74.38;22.30;;;;;;;1.80;100.00;95494.94;4994266;28;20038;-71
2022/12/02 10:51:16;;;;;;;72.35;21.40;;;;;;;1.78;100.00;95486.56;4994889;28;20507;-71
2022/12/02 10:53:44;;;;;;;75.82;21.92;;;;;;;1.72;100.00;95492.59;5001783;28;20065;-74
2022/12/02 10:56:20;;;;;;;74.35;22.20;;;;;;;1.64;100.00;95490.28;5005007;28;20046;-73
2022/12/02 10:58:49;;;;;;;69.60;21.65;;;;;;;1.70;100.00;95479.84;5008347;28;20411;-73
2022/12/02 11:01:17;;;;;;;76.50;22.35;;;;;;;1.71;100.00;95491.00;4996619;28;20049;-73
2022/12/02 11:03:42;;;;;;;69.90;21.55;;;;;;;1.64;100.00;95487.69;5003066;28;20046;-73
2022/12/02 11:06:19;;;;;;;66.40;21.92;;;;;;;1.65;100.00;95481.50;4999164;28;20069;-73
2022/12/02 11:08:47;;;;;;;67.63;23.20;;;;;;;1.56;100.00;95473.97;5006129;28;20098;-74
2022/12/02 11:11:35;;;;;;;77.07;23.38;;;;;;;1.58;100.00;95476.38;4997607;28;22385;-74
2022/12/02 11:14:04;;;;;;;78.57;22.95;;;;;;;1.62;100.00;95477.50;4997510;28;20043;-74
2022/12/02 11:16:32;;;;;;;77.00;22.02;;;;;;;1.65;100.00;95478.91;5000666;28;20037;-74
2022/12/02 11:19:37;;;;;;;76.75;22.23;;;;;;;1.52;100.00;95478.03;5002282;28;20456;-72
2022/12/02 11:22:03;;;;;;;64.78;20.33;;;;;;;1.53;100.00;95468.44;5009819;28;20033;-75
2022/12/02 11:24:29;;;;;;;67.65;21.42;;;;;;;1.61;100.00;95475.13;5000506;28;20186;-74